Time;durP1;ratioP1;P1;durP2;ratioP2;P2;SDS_P1;SDS_P2;PMS_P1;PMS_P2;Temp;Humidity;BMP_temperature;BMP_pressure;BME280_temperature;BME280_humidity;BME280_pressure;Samples;Min_cycle;Max_cycle;Signal;HPM_P1;HPM_P2
2022/09/25 00:00:28;;;;;;;6.20;5.70;;;19.30;59.60;;;;;;4842394;29;20285;-82
2022/09/25 00:03:14;;;;;;;6.38;5.85;;;19.30;59.60;;;;;;4873719;29;20184;-83
2022/09/25 00:09:04;;;;;;;5.72;5.28;;;19.30;59.70;;;;;;4910713;29;20214;-82
2022/09/25 00:11:31;;;;;;;5.97;5.47;;;19.30;59.60;;;;;;4879450;29;20220;-82
2022/09/25 00:14:16;;;;;;;6.30;5.70;;;19.30;59.60;;;;;;4895058;29;20194;-82
2022/09/25 00:17:15;;;;;;;5.45;5.05;;;19.20;59.60;;;;;;4898092;29;20244;-83
2022/09/25 00:19:50;;;;;;;6.10;5.60;;;19.30;59.70;;;;;;4897486;29;20200;-82
2022/09/25 00:22:28;;;;;;;5.75;5.25;;;19.30;59.70;;;;;;4897415;29;20187;-83
2022/09/25 00:29:09;;;;;;;5.55;5.05;;;19.20;59.60;;;;;;4916175;29;20218;-82
2022/09/25 00:31:46;;;;;;;5.70;5.20;;;19.30;59.70;;;;;;4891323;29;20230;-82
2022/09/25 00:48:26;;;;;;;6.13;5.63;;;19.30;59.80;;;;;;4937339;29;20316;-82
2022/09/25 00:51:27;;;;;;;5.72;5.30;;;19.20;59.70;;;;;;4938858;29;20227;-83
2022/09/25 00:54:00;;;;;;;5.78;5.32;;;19.20;59.80;;;;;;4868536;29;20639;-83
2022/09/25 01:03:38;;;;;;;5.78;5.28;;;19.30;59.80;;;;;;4882068;29;20271;-82
2022/09/25 01:06:16;;;;;;;5.85;5.35;;;19.30;59.80;;;;;;4882130;29;20330;-82
2022/09/25 01:08:56;;;;;;;5.45;5.05;;;19.30;59.80;;;;;;4896446;29;20219;-83
2022/09/25 01:11:37;;;;;;;6.20;5.70;;;19.20;59.80;;;;;;4866770;29;20188;-82
2022/09/25 01:14:25;;;;;;;6.10;5.60;;;19.20;59.90;;;;;;4896260;29;20252;-82
2022/09/25 01:17:08;;;;;;;6.03;5.53;;;19.20;59.80;;;;;;4896724;29;20209;-82
2022/09/25 01:20:15;;;;;;;6.18;5.68;;;19.20;59.80;;;;;;4917759;29;20195;-82
2022/09/25 01:23:27;;;;;;;6.20;5.70;;;19.20;59.80;;;;;;4902894;29;20187;-82
2022/09/25 01:26:48;;;;;;;5.40;5.00;;;19.20;59.90;;;;;;4941057;29;20189;-82
2022/09/25 01:29:24;;;;;;;5.93;5.43;;;19.20;59.90;;;;;;4972368;28;20227;-82
2022/09/25 01:32:14;;;;;;;5.60;5.10;;;19.20;59.90;;;;;;4906457;29;20196;-82
2022/09/25 01:35:00;;;;;;;5.70;5.20;;;19.20;59.90;;;;;;4907721;29;20198;-82
2022/09/25 01:38:00;;;;;;;5.88;5.38;;;19.20;59.90;;;;;;4891120;29;20186;-82
2022/09/25 01:41:06;;;;;;;5.60;5.20;;;19.20;59.90;;;;;;4904666;29;20244;-82
2022/09/25 01:44:00;;;;;;;5.85;5.35;;;19.20;59.90;;;;;;4937539;29;20177;-82
2022/09/25 01:46:50;;;;;;;6.10;5.60;;;19.20;59.90;;;;;;4915046;29;20187;-82
2022/09/25 01:49:27;;;;;;;5.85;5.35;;;19.20;59.90;;;;;;4903214;29;20286;-82
2022/09/25 02:09:20;;;;;;;5.68;5.18;;;19.20;59.90;;;;;;4936937;29;20283;-83
2022/09/25 02:12:14;;;;;;;5.95;5.45;;;19.20;59.90;;;;;;4913804;29;20744;-83
2022/09/25 02:15:08;;;;;;;5.70;5.20;;;19.20;60.00;;;;;;4942959;29;20177;-82
2022/09/25 02:21:01;;;;;;;5.97;5.47;;;19.20;59.90;;;;;;4924489;29;20179;-82
2022/09/25 02:23:41;;;;;;;5.57;5.15;;;19.20;59.90;;;;;;4905024;29;20190;-82
2022/09/25 02:26:21;;;;;;;5.70;5.20;;;19.10;59.90;;;;;;4921518;29;20186;-82
2022/09/25 02:29:09;;;;;;;5.85;5.35;;;19.20;60.00;;;;;;4894912;29;20231;-82
2022/09/25 02:31:52;;;;;;;5.70;5.20;;;19.20;60.00;;;;;;4861265;29;20192;-82
2022/09/25 02:34:36;;;;;;;5.90;5.40;;;19.20;60.00;;;;;;4846218;29;20189;-82
2022/09/25 02:37:17;;;;;;;5.60;5.10;;;19.20;60.00;;;;;;4846006;29;20229;-82
2022/09/25 02:40:19;;;;;;;5.65;5.25;;;19.20;60.00;;;;;;4830664;29;20200;-82
2022/09/25 02:43:04;;;;;;;5.50;5.00;;;19.20;59.90;;;;;;4846825;29;20173;-82
2022/09/25 02:45:55;;;;;;;5.72;5.22;;;19.10;59.90;;;;;;4870615;29;20192;-82
2022/09/25 02:48:53;;;;;;;5.45;4.95;;;19.10;59.90;;;;;;4842355;29;20224;-82
2022/09/25 02:51:54;;;;;;;5.53;5.05;;;19.10;59.90;;;;;;4875601;29;20196;-82
2022/09/25 02:54:31;;;;;;;5.60;5.10;;;19.10;60.00;;;;;;4827201;29;20185;-82
2022/09/25 02:57:30;;;;;;;5.60;5.10;;;19.20;60.00;;;;;;4791882;30;20191;-82
2022/09/25 03:00:12;;;;;;;5.47;5.03;;;19.20;60.00;;;;;;4753117;30;20218;-82
2022/09/25 03:03:19;;;;;;;6.07;5.57;;;19.20;60.00;;;;;;4806335;29;20270;-83
2022/09/25 03:05:46;;;;;;;5.65;5.15;;;19.20;60.00;;;;;;4809523;29;20210;-83
2022/09/25 03:08:38;;;;;;;5.80;5.30;;;19.10;59.90;;;;;;4823928;29;20249;-82
2022/09/25 03:11:26;;;;;;;5.65;5.15;;;19.10;59.90;;;;;;4822615;29;20293;-82
2022/09/25 03:14:25;;;;;;;5.60;5.10;;;19.10;60.00;;;;;;4822651;29;20233;-82
2022/09/25 03:17:03;;;;;;;5.97;5.47;;;19.10;60.00;;;;;;4812401;29;20189;-82
2022/09/25 03:19:35;;;;;;;5.57;5.07;;;19.10;60.00;;;;;;4832245;29;20186;-82
2022/09/25 03:22:13;;;;;;;5.40;5.00;;;19.10;60.00;;;;;;4794695;29;20222;-82
2022/09/25 03:24:44;;;;;;;5.60;5.10;;;19.10;60.00;;;;;;4832763;29;20772;-82
2022/09/25 03:27:11;;;;;;;5.75;5.28;;;19.10;60.00;;;;;;4862366;29;20212;-82
2022/09/25 03:29:57;;;;;;;5.00;4.60;;;19.10;60.00;;;;;;4878934;29;20192;-82
2022/09/25 03:32:34;;;;;;;5.88;5.38;;;19.10;60.00;;;;;;4973878;28;20209;-82
2022/09/25 03:35:06;;;;;;;5.97;5.47;;;19.10;60.00;;;;;;4954352;29;20186;-82
2022/09/25 03:38:11;;;;;;;5.55;5.05;;;19.10;60.00;;;;;;4923848;29;20197;-82
2022/09/25 03:40:44;;;;;;;5.53;5.13;;;19.10;60.00;;;;;;4938498;29;20185;-82
2022/09/25 03:43:36;;;;;;;5.72;5.22;;;19.10;60.00;;;;;;4907067;29;20189;-83
2022/09/25 03:46:10;;;;;;;5.07;4.68;;;19.10;60.00;;;;;;4946980;28;20247;-82
2022/09/25 03:48:52;;;;;;;5.38;4.97;;;19.10;60.10;;;;;;4959873;28;20220;-82
2022/09/25 03:51:46;;;;;;;5.82;5.32;;;19.10;60.10;;;;;;4937649;29;20186;-82
2022/09/25 03:54:25;;;;;;;5.75;5.25;;;19.10;60.10;;;;;;4937552;29;20186;-82
2022/09/25 03:56:54;;;;;;;5.68;5.18;;;19.10;60.10;;;;;;4900069;29;20669;-82
2022/09/25 03:59:26;;;;;;;5.22;4.82;;;19.10;60.10;;;;;;4895273;29;20197;-82
2022/09/25 04:01:55;;;;;;;5.75;5.25;;;19.10;60.10;;;;;;4921643;29;20197;-82
2022/09/25 04:04:24;;;;;;;5.70;5.20;;;19.10;60.10;;;;;;4906469;29;20181;-82
2022/09/25 04:07:02;;;;;;;5.82;5.30;;;19.10;60.10;;;;;;4884310;29;20188;-82
2022/09/25 04:09:32;;;;;;;5.38;4.88;;;19.10;60.10;;;;;;4868466;29;20223;-82
2022/09/25 04:12:16;;;;;;;5.40;5.00;;;19.10;60.10;;;;;;4869335;29;20194;-82
2022/09/25 04:14:44;;;;;;;5.80;5.30;;;19.10;60.10;;;;;;4861618;29;20189;-82
2022/09/25 04:17:38;;;;;;;5.45;4.95;;;19.10;60.10;;;;;;4877661;29;20191;-82
2022/09/25 04:20:08;;;;;;;5.20;4.70;;;19.10;60.10;;;;;;4892961;29;20180;-82
2022/09/25 04:22:45;;;;;;;5.10;4.70;;;19.00;60.10;;;;;;4889526;29;20241;-82
2022/09/25 04:25:24;;;;;;;5.53;5.03;;;19.10;60.10;;;;;;4912151;29;20188;-83
2022/09/25 04:28:01;;;;;;;5.03;4.60;;;19.10;60.10;;;;;;4914580;29;20222;-82
2022/09/25 04:30:48;;;;;;;5.32;4.93;;;19.10;60.10;;;;;;4915279;29;20178;-82
2022/09/25 04:36:07;;;;;;;5.72;5.22;;;19.10;60.10;;;;;;4914812;29;20187;-82
2022/09/25 04:38:52;;;;;;;5.50;5.00;;;19.10;60.10;;;;;;4905888;29;20235;-82
2022/09/25 04:41:48;;;;;;;5.18;4.78;;;19.10;60.10;;;;;;4902495;29;20187;-82
2022/09/25 04:44:25;;;;;;;5.65;5.15;;;19.00;60.00;;;;;;4933179;29;20285;-82
2022/09/25 04:46:59;;;;;;;5.53;5.05;;;19.10;60.00;;;;;;4924942;29;20185;-82
2022/09/25 04:49:40;;;;;;;5.20;4.80;;;19.10;60.10;;;;;;4909062;29;20231;-82
2022/09/25 04:52:20;;;;;;;5.25;4.85;;;19.10;60.00;;;;;;4909832;29;20190;-82
2022/09/25 04:54:55;;;;;;;5.25;4.85;;;19.10;60.00;;;;;;4940245;29;20185;-82
2022/09/25 04:57:30;;;;;;;5.28;4.80;;;19.00;60.90;;;;;;4955672;29;20232;-82
2022/09/25 04:59:59;;;;;;;5.22;4.72;;;19.10;60.00;;;;;;4939358;29;20226;-83
2022/09/25 05:06:23;;;;;;;5.22;4.82;;;19.10;60.10;;;;;;4971837;29;20177;-82
2022/09/25 05:09:31;;;;;;;5.32;4.82;;;19.10;60.00;;;;;;4913831;29;20247;-83
2022/09/25 05:11:58;;;;;;;4.65;4.25;;;19.10;60.10;;;;;;4858772;29;20194;-82
2022/09/25 05:14:31;;;;;;;5.10;4.70;;;19.00;60.00;;;;;;4859136;29;20198;-82
2022/09/25 05:16:58;;;;;;;5.60;5.10;;;19.10;60.10;;;;;;4828945;29;20193;-82
2022/09/25 05:19:39;;;;;;;5.00;4.60;;;19.10;60.00;;;;;;4843756;29;20185;-83
2022/09/25 05:22:22;;;;;;;5.30;4.90;;;19.10;60.00;;;;;;4867993;29;20233;-82
2022/09/25 05:24:54;;;;;;;5.47;4.97;;;19.10;60.10;;;;;;4849196;29;20188;-82
2022/09/25 05:27:43;;;;;;;5.40;4.90;;;19.10;60.10;;;;;;4898450;29;20192;-82
2022/09/25 05:30:10;;;;;;;4.80;4.40;;;19.10;60.20;;;;;;4896763;29;20205;-82
2022/09/25 05:32:48;;;;;;;5.32;4.88;;;19.00;60.10;;;;;;4898726;29;20184;-83
2022/09/25 05:35:43;;;;;;;5.05;4.65;;;19.10;60.10;;;;;;4860403;29;20186;-82
2022/09/25 05:38:15;;;;;;;4.90;4.50;;;19.10;60.10;;;;;;4837434;29;20200;-82
2022/09/25 05:40:44;;;;;;;5.47;4.97;;;19.00;60.10;;;;;;4890888;29;20190;-82
2022/09/25 05:43:46;;;;;;;5.20;4.70;;;19.10;60.20;;;;;;4942636;29;20190;-83
2022/09/25 05:46:27;;;;;;;4.97;4.57;;;19.10;60.10;;;;;;4881906;29;20232;-83
2022/09/25 05:49:07;;;;;;;5.28;4.82;;;19.00;60.10;;;;;;4896272;29;20243;-82
2022/09/25 05:51:35;;;;;;;5.20;4.80;;;19.10;60.10;;;;;;4896106;29;20215;-82
2022/09/25 05:54:08;;;;;;;4.85;4.45;;;19.10;60.10;;;;;;4881194;29;20223;-82
2022/09/25 05:56:39;;;;;;;4.93;4.53;;;19.10;60.00;;;;;;4881270;29;20180;-82
2022/09/25 05:59:13;;;;;;;5.53;5.03;;;19.10;60.10;;;;;;4881657;29;20191;-82
2022/09/25 06:02:11;;;;;;;5.05;4.65;;;19.10;60.20;;;;;;4884501;29;20341;-82
2022/09/25 06:05:18;;;;;;;4.85;4.45;;;19.10;60.10;;;;;;4896750;29;20277;-82
2022/09/25 06:08:05;;;;;;;5.20;4.75;;;19.10;60.10;;;;;;4920964;29;20213;-82
2022/09/25 06:10:35;;;;;;;5.68;5.18;;;19.10;60.10;;;;;;4910639;29;20299;-84
2022/09/25 06:13:18;;;;;;;5.28;4.88;;;19.00;59.90;;;;;;4881474;29;20206;-81
2022/09/25 06:15:55;;;;;;;5.47;4.97;;;19.10;60.00;;;;;;4897532;29;20183;-82
2022/09/25 06:18:22;;;;;;;5.55;5.05;;;19.10;60.10;;;;;;4878588;29;20191;-82
2022/09/25 06:21:15;;;;;;;5.10;4.70;;;19.00;60.10;;;;;;4892544;29;20227;-82
2022/09/25 06:23:55;;;;;;;4.72;4.32;;;19.10;60.10;;;;;;4872875;29;20778;-82
2022/09/25 06:26:42;;;;;;;5.10;4.70;;;19.00;60.00;;;;;;4895041;29;20204;-82
2022/09/25 06:29:28;;;;;;;5.13;4.72;;;19.00;60.00;;;;;;4894703;29;20219;-84
2022/09/25 06:32:01;;;;;;;4.95;4.55;;;19.10;60.10;;;;;;4915460;29;20212;-82
2022/09/25 06:34:57;;;;;;;5.15;4.75;;;19.10;60.10;;;;;;4895164;29;20188;-82
2022/09/25 06:37:24;;;;;;;5.00;4.60;;;19.00;60.10;;;;;;4871200;29;20196;-82
2022/09/25 06:39:54;;;;;;;4.88;4.47;;;19.10;60.10;;;;;;4878265;29;20196;-82
2022/09/25 06:42:22;;;;;;;4.57;4.18;;;19.00;60.10;;;;;;4878318;29;20248;-82
2022/09/25 06:44:51;;;;;;;4.90;4.50;;;19.00;60.00;;;;;;4878440;29;20187;-82
2022/09/25 06:47:21;;;;;;;4.95;4.55;;;19.00;60.10;;;;;;4892231;29;20192;-82
2022/09/25 06:49:53;;;;;;;5.20;4.70;;;19.10;60.00;;;;;;4885921;29;20250;-82
2022/09/25 06:52:33;;;;;;;5.32;4.82;;;19.10;60.10;;;;;;4909303;29;20183;-82
2022/09/25 06:58:43;;;;;;;4.85;4.45;;;19.10;60.10;;;;;;4940119;29;20184;-83
2022/09/25 07:01:30;;;;;;;5.20;4.80;;;19.10;60.10;;;;;;4925505;29;20248;-83
2022/09/25 07:04:03;;;;;;;5.10;4.70;;;19.10;60.10;;;;;;4954567;28;20180;-82
2022/09/25 07:06:36;;;;;;;5.15;4.75;;;19.10;59.90;;;;;;4939569;28;20261;-82
2022/09/25 07:09:10;;;;;;;5.05;4.65;;;19.10;60.10;;;;;;4940623;28;20220;-82
2022/09/25 07:11:35;;;;;;;4.93;4.53;;;19.10;60.00;;;;;;4958259;28;20284;-82
2022/09/25 07:14:10;;;;;;;4.93;4.53;;;19.10;60.10;;;;;;4941390;28;20221;-82
2022/09/25 07:16:36;;;;;;;5.20;4.70;;;19.10;60.10;;;;;;4933793;29;20193;-83
2022/09/25 07:19:08;;;;;;;4.70;4.30;;;19.10;60.10;;;;;;4919130;29;20196;-83
2022/09/25 07:21:37;;;;;;;4.30;3.90;;;19.10;59.90;;;;;;4911326;29;20219;-82
2022/09/25 07:24:04;;;;;;;4.53;4.13;;;19.20;60.00;;;;;;4927673;29;20183;-82
2022/09/25 07:26:36;;;;;;;4.03;3.72;;;19.20;59.90;;;;;;4899278;29;20194;-82
2022/09/25 07:29:13;;;;;;;4.00;3.70;;;19.20;59.90;;;;;;4900901;29;20245;-82
2022/09/25 07:31:43;;;;;;;3.92;3.63;;;19.20;59.90;;;;;;4898756;29;20277;-82
2022/09/25 07:34:22;;;;;;;4.10;3.80;;;19.20;59.90;;;;;;4898797;29;20187;-83
2022/09/25 07:37:04;;;;;;;4.55;4.07;;;19.20;59.70;;;;;;4901750;29;20209;-82
2022/09/25 07:39:47;;;;;;;4.45;4.05;;;19.20;59.70;;;;;;4902703;29;20190;-82
2022/09/25 07:42:26;;;;;;;4.18;3.88;;;19.30;59.70;;;;;;4901165;29;20190;-82
2022/09/25 07:45:02;;;;;;;4.50;4.10;;;19.20;59.70;;;;;;4900440;29;20217;-82
2022/09/25 07:47:32;;;;;;;3.70;3.40;;;19.30;60.50;;;;;;4878366;29;20315;-81
2022/09/25 07:50:03;;;;;;;3.83;3.53;;;19.20;59.60;;;;;;4862811;29;20191;-82
2022/09/25 07:52:36;;;;;;;3.90;3.60;;;19.30;59.70;;;;;;4880999;29;20213;-83
2022/09/25 07:55:40;;;;;;;4.25;3.95;;;19.30;59.60;;;;;;4937649;28;20184;-82
2022/09/25 07:58:21;;;;;;;3.88;3.58;;;19.30;59.60;;;;;;4972365;28;20184;-83
2022/09/25 08:01:04;;;;;;;3.78;3.47;;;19.20;59.60;;;;;;4943479;28;20264;-82
2022/09/25 08:03:39;;;;;;;3.80;3.50;;;19.30;59.60;;;;;;4973280;28;20188;-82
2022/09/25 08:06:12;;;;;;;3.55;3.25;;;19.30;59.50;;;;;;4957112;28;20168;-82
2022/09/25 08:08:43;;;;;;;3.80;3.50;;;19.30;59.50;;;;;;4924448;28;20216;-83
2022/09/25 08:11:20;;;;;;;3.60;3.30;;;19.30;59.50;;;;;;4956765;28;20220;-82
2022/09/25 08:13:52;;;;;;;3.60;3.30;;;19.30;59.40;;;;;;4899150;29;20186;-83
2022/09/25 08:16:23;;;;;;;3.92;3.63;;;19.30;59.40;;;;;;4878703;29;20203;-83
2022/09/25 08:18:59;;;;;;;4.07;3.78;;;19.30;59.40;;;;;;4887888;29;20214;-82
2022/09/25 08:22:01;;;;;;;3.95;3.65;;;19.30;59.50;;;;;;4916488;29;20197;-82
2022/09/25 08:24:31;;;;;;;3.70;3.40;;;19.30;59.50;;;;;;4908617;29;20248;-82
2022/09/25 08:27:10;;;;;;;3.78;3.47;;;19.30;59.50;;;;;;4859037;29;20316;-83
2022/09/25 08:29:39;;;;;;;4.13;3.83;;;19.30;59.50;;;;;;4855306;29;20221;-82
2022/09/25 08:32:18;;;;;;;3.75;3.45;;;19.30;59.50;;;;;;4819286;29;20195;-82
2022/09/25 08:34:55;;;;;;;3.80;3.50;;;19.30;59.40;;;;;;4820127;29;20185;-83
2022/09/25 08:37:30;;;;;;;3.30;3.00;;;19.40;59.40;;;;;;4787636;30;20199;-82
2022/09/25 08:40:03;;;;;;;3.60;3.30;;;19.40;59.40;;;;;;4787386;30;20175;-82
2022/09/25 08:42:45;;;;;;;4.00;3.70;;;19.40;59.60;;;;;;4773152;30;20184;-82
2022/09/25 08:49:26;;;;;;;3.65;3.35;;;19.40;59.50;;;;;;4861499;29;20205;-82
2022/09/25 08:52:12;;;;;;;3.60;3.30;;;19.40;59.40;;;;;;4858546;29;20193;-83
2022/09/25 08:54:41;;;;;;;3.83;3.50;;;19.40;59.10;;;;;;4850053;29;20185;-82
2022/09/25 08:57:26;;;;;;;4.60;3.30;;;19.40;59.00;;;;;;4860001;29;20181;-83
2022/09/25 09:00:16;;;;;;;3.30;3.00;;;19.40;58.60;;;;;;4858202;29;20193;-82
2022/09/25 09:02:54;;;;;;;3.70;3.22;;;19.40;58.20;;;;;;4848053;29;20191;-83
2022/09/25 09:06:23;;;;;;;3.67;3.38;;;19.40;58.00;;;;;;4824561;29;20200;-83
2022/09/25 09:08:53;;;;;;;3.03;2.83;;;19.40;58.00;;;;;;4840943;29;20316;-82
2022/09/25 09:15:34;;;;;;;3.50;3.20;;;19.40;57.70;;;;;;4835276;29;20200;-83
2022/09/25 09:18:28;;;;;;;3.25;2.95;;;19.40;57.60;;;;;;4824920;29;20201;-83
2022/09/25 09:21:47;;;;;;;3.15;2.95;;;19.40;57.50;;;;;;4766400;30;20217;-83
2022/09/25 09:25:04;;;;;;;;;;;;;;;;;;;;;
2022/09/25 09:28:18;;;;;;;3.33;3.03;;;19.40;57.50;;;;;;4737385;30;20345;-83
2022/09/25 09:32:12;;;;;;;3.13;2.92;;;19.40;57.00;;;;;;4754160;30;20188;-83
2022/09/25 09:38:30;;;;;;;3.00;2.80;;;19.40;57.10;;;;;;4789762;30;20179;-83
2022/09/25 09:42:04;;;;;;;3.25;2.97;;;19.50;56.90;;;;;;4789476;30;20255;-82
2022/09/25 09:45:02;;;;;;;3.10;2.90;;;19.40;56.80;;;;;;4780176;30;20180;-83
2022/09/25 09:48:23;;;;;;;3.00;2.80;;;19.40;56.40;;;;;;4791356;30;20195;-83
2022/09/25 09:51:31;;;;;;;2.80;2.60;;;19.40;56.30;;;;;;4807455;29;20192;-83
2022/09/25 09:54:21;;;;;;;2.78;2.58;;;19.40;56.10;;;;;;4826998;29;20239;-84
2022/09/25 09:57:40;;;;;;;;;;;;;;;;;;;;;
2022/09/25 10:00:25;;;;;;;3.95;3.20;;;19.40;55.90;;;;;;4817698;29;20221;-83
2022/09/25 10:09:50;;;;;;;3.20;2.90;;;19.40;56.00;;;;;;4788836;30;20206;-83
2022/09/25 10:16:32;;;;;;;3.50;3.20;;;19.50;55.80;;;;;;4807967;29;20191;-83
2022/09/25 10:20:40;;;;;;;;;;;;;;;;;;;;;
2022/09/25 10:23:35;;;;;;;3.47;3.17;;;19.50;55.70;;;;;;4802594;29;20182;-83
2022/09/25 10:26:58;;;;;;;3.53;3.22;;;19.50;55.50;;;;;;4797478;29;20204;-83
2022/09/25 10:33:22;;;;;;;3.30;3.10;;;19.50;55.20;;;;;;4736361;30;20224;-84
2022/09/25 10:35:53;;;;;;;3.20;3.00;;;19.50;55.20;;;;;;4774800;30;20226;-84
2022/09/25 10:42:21;;;;;;;3.60;3.30;;;19.50;55.10;;;;;;4808156;30;20174;-83
2022/09/25 10:45:29;;;;;;;3.30;3.00;;;19.50;55.10;;;;;;4790705;30;20184;-83
2022/09/25 10:52:14;;;;;;;;;;;;;;;;;;;;;
2022/09/25 10:55:16;;;;;;;3.40;3.13;;;19.60;55.30;;;;;;4818041;29;20211;-83
2022/09/25 10:58:13;;;;;;;3.63;3.28;;;19.60;55.40;;;;;;4803990;30;20199;-83
2022/09/25 11:01:06;;;;;;;2.90;2.70;;;19.60;55.40;;;;;;4803349;30;20399;-83
2022/09/25 11:03:46;;;;;;;3.10;2.80;;;19.60;55.50;;;;;;4785045;30;20192;-83
2022/09/25 11:09:39;;;;;;;3.20;2.90;;;19.60;55.40;;;;;;4840519;29;20222;-83
2022/09/25 11:12:28;;;;;;;3.30;3.00;;;19.60;55.50;;;;;;4839999;29;20233;-83
2022/09/25 11:15:25;;;;;;;3.10;2.90;;;19.60;55.50;;;;;;4819674;29;20228;-83
2022/09/25 11:18:00;;;;;;;2.97;2.78;;;19.60;55.60;;;;;;4805668;29;20186;-82
2022/09/25 11:21:24;;;;;;;3.50;3.20;;;19.60;55.50;;;;;;4784626;30;20272;-83
2022/09/25 11:24:23;;;;;;;3.13;2.90;;;19.60;55.50;;;;;;4807247;29;20175;-83
2022/09/25 11:27:21;;;;;;;3.00;2.80;;;19.60;55.40;;;;;;4813531;29;20198;-83
2022/09/25 11:30:27;;;;;;;;;;;;;;;;;;;;;
2022/09/25 11:33:24;;;;;;;3.38;3.13;;;19.60;55.20;;;;;;4815121;29;20225;-83
2022/09/25 11:36:19;;;;;;;3.88;3.58;;;19.60;55.10;;;;;;4822436;29;20187;-84
2022/09/25 11:42:38;;;;;;;3.30;3.00;;;19.60;54.90;;;;;;4804237;29;20187;-83
2022/09/25 11:45:29;;;;;;;3.10;2.90;;;19.60;54.80;;;;;;4822077;29;20195;-83
2022/09/25 11:48:20;;;;;;;3.33;3.05;;;19.60;54.70;;;;;;4824581;29;20221;-83
2022/09/25 11:51:44;;;;;;;;;;;;;;;;;;;;;
2022/09/25 11:54:26;;;;;;;5.32;2.90;;;19.70;54.90;;;;;;4815335;29;20206;-83
2022/09/25 11:57:26;;;;;;;3.60;3.30;;;19.70;54.80;;;;;;4784671;30;20247;-83
2022/09/25 12:00:26;;;;;;;3.53;3.22;;;19.70;54.80;;;;;;4748921;30;20228;-83
2022/09/25 12:06:52;;;;;;;3.20;2.90;;;19.70;54.60;;;;;;4731885;30;20655;-85
2022/09/25 12:10:25;;;;;;;3.85;3.25;;;19.70;54.60;;;;;;4694419;30;20227;-83
2022/09/25 12:13:32;;;;;;;3.20;3.00;;;19.70;54.50;;;;;;4651047;30;20198;-82
2022/09/25 12:16:10;;;;;;;3.00;2.80;;;19.70;54.50;;;;;;4625085;31;20190;-83
2022/09/25 12:19:25;;;;;;;2.88;2.67;;;19.70;54.50;;;;;;4639686;30;20255;-83
2022/09/25 12:25:58;;;;;;;2.67;2.47;;;19.70;54.40;;;;;;4682303;30;20195;-83
2022/09/25 12:29:03;;;;;;;3.15;2.95;;;19.70;54.40;;;;;;4679440;30;20251;-83
2022/09/25 12:32:22;;;;;;;3.20;2.90;;;19.70;54.40;;;;;;4737161;30;20190;-83
2022/09/25 12:35:19;;;;;;;;;;;;;;;;;;;;;
2022/09/25 12:38:04;;;;;;;3.38;3.08;;;19.80;54.20;;;;;;4711785;30;20225;-83
2022/09/25 12:40:44;;;;;;;3.05;2.85;;;19.80;54.10;;;;;;4756656;30;20318;-83
2022/09/25 12:43:40;;;;;;;2.92;2.72;;;19.80;54.00;;;;;;4784317;29;20262;-84
2022/09/25 12:50:16;;;;;;;3.00;2.80;;;19.80;53.80;;;;;;4786128;30;20720;-83
2022/09/25 12:56:18;;;;;;;2.90;2.70;;;19.70;53.50;;;;;;5021394;23;20254;-84
2022/09/25 13:00:23;;;;;;;2.80;2.60;;;19.80;53.40;;;;;;4999954;28;20214;-83
2022/09/25 13:02:33;;;;;;;3.00;2.70;;;19.80;53.20;;;;;;5026994;28;20189;-83
2022/09/25 13:15:54;;;;;;;2.97;2.78;;;19.80;52.90;;;;;;5055273;28;20158;-84
2022/09/25 13:19:10;;;;;;;3.00;2.80;;;19.80;52.90;;;;;;5019668;28;20234;-83
2022/09/25 13:55:24;;;;;;;2.85;2.65;;;19.90;52.20;;;;;;5007984;28;20245;-82
2022/09/25 13:58:36;;;;;;;2.78;2.58;;;19.90;52.20;;;;;;4984066;28;20223;-82
2022/09/25 14:01:17;;;;;;;3.05;2.85;;;19.90;52.20;;;;;;5000972;28;20167;-82
2022/09/25 14:04:05;;;;;;;;;;;;;;;;;;;;;
2022/09/25 14:07:32;;;;;;;2.85;2.65;;;19.90;52.40;;;;;;4944161;28;20208;-83
2022/09/25 14:49:23;;;;;;;3.00;2.80;;;19.90;53.10;;;;;;5106512;23;20309;-82
2022/09/25 14:51:57;;;;;;;2.78;2.58;;;19.90;53.00;;;;;;4930790;29;20193;-82
2022/09/25 14:54:47;;;;;;;2.88;2.67;;;19.90;52.90;;;;;;4910604;29;20197;-82
2022/09/25 14:57:35;;;;;;;2.90;2.70;;;19.90;52.80;;;;;;4892231;29;20240;-82
2022/09/25 15:00:53;;;;;;;2.95;2.70;;;19.90;52.70;;;;;;4878574;29;20283;-82
2022/09/25 15:59:16;;;;;;;3.00;2.67;;;20.00;52.30;;;;;;5022397;28;20230;-83
2022/09/25 16:07:26;;;;;;;2.88;2.67;;;20.00;52.20;;;;;;4961779;29;20181;-83
2022/09/25 16:10:26;;;;;;;3.08;2.88;;;20.00;52.30;;;;;;4925807;29;20283;-83
2022/09/25 16:13:00;;;;;;;2.70;2.50;;;20.00;52.10;;;;;;4886299;29;20190;-83
2022/09/25 16:15:53;;;;;;;2.78;2.58;;;20.00;52.20;;;;;;4897150;29;20186;-84
2022/09/25 16:22:20;;;;;;;3.35;2.67;;;20.00;52.10;;;;;;4910097;29;20685;-83
2022/09/25 16:24:50;;;;;;;2.70;2.50;;;20.00;52.10;;;;;;4891336;29;20218;-83
2022/09/25 16:27:50;;;;;;;2.90;2.70;;;20.00;52.10;;;;;;4858178;29;20211;-83
2022/09/25 16:30:21;;;;;;;2.53;2.33;;;20.00;52.20;;;;;;4833237;29;20210;-82
2022/09/25 16:32:51;;;;;;;2.85;2.47;;;20.00;52.40;;;;;;4833603;29;20709;-82
2022/09/25 16:35:23;;;;;;;3.80;2.50;;;20.00;52.30;;;;;;4834287;29;20218;-83
2022/09/25 16:37:50;;;;;;;2.80;2.60;;;20.00;52.50;;;;;;4842079;29;20219;-82
2022/09/25 16:40:23;;;;;;;2.92;2.72;;;20.00;52.50;;;;;;4872542;29;20219;-83
2022/09/25 16:42:54;;;;;;;2.80;2.60;;;20.00;52.50;;;;;;4885455;29;20603;-84
2022/09/25 16:45:33;;;;;;;2.67;2.47;;;20.00;52.60;;;;;;4885111;29;20188;-84
2022/09/25 16:48:31;;;;;;;3.17;2.90;;;20.00;52.60;;;;;;4883879;29;20306;-82
2022/09/25 16:51:05;;;;;;;2.80;2.60;;;20.00;52.70;;;;;;4923550;29;20194;-82
2022/09/25 16:53:40;;;;;;;2.95;2.75;;;20.00;52.80;;;;;;4841237;29;20188;-82
2022/09/25 16:56:06;;;;;;;2.90;2.60;;;20.00;52.80;;;;;;4836357;29;20185;-83
2022/09/25 16:58:41;;;;;;;3.30;3.00;;;20.00;52.90;;;;;;4827990;29;20197;-83
2022/09/25 17:01:16;;;;;;;3.05;2.70;;;20.00;52.90;;;;;;4844189;29;20332;-83
2022/09/25 17:03:51;;;;;;;3.03;2.80;;;19.90;52.90;;;;;;4811809;29;20198;-83
2022/09/25 17:06:26;;;;;;;2.47;2.28;;;20.00;53.00;;;;;;4826864;29;20565;-83
2022/09/25 17:08:57;;;;;;;2.78;2.50;;;20.00;53.10;;;;;;4825776;29;20248;-83
2022/09/25 17:11:33;;;;;;;2.90;2.70;;;19.90;53.00;;;;;;4840314;29;20180;-83
2022/09/25 17:14:05;;;;;;;2.58;2.25;;;19.90;53.10;;;;;;4836641;29;20192;-83
2022/09/25 17:16:40;;;;;;;2.60;2.40;;;20.00;53.20;;;;;;4827792;29;20427;-84
2022/09/25 17:19:14;;;;;;;2.78;2.58;;;20.00;53.20;;;;;;4814509;29;20200;-83
2022/09/25 17:22:55;;;;;;;2.78;2.58;;;20.00;53.30;;;;;;4853567;29;20196;-82
2022/09/25 17:25:52;;;;;;;3.65;3.15;;;20.00;53.30;;;;;;4868046;29;20192;-82
2022/09/25 17:28:21;;;;;;;7.88;3.08;;;19.90;53.40;;;;;;4799573;29;20231;-83
2022/09/25 17:31:18;;;;;;;3.00;2.80;;;20.00;53.70;;;;;;4786499;30;20187;-82
2022/09/25 17:37:40;;;;;;;3.40;3.00;;;20.00;53.90;;;;;;4782761;30;20171;-83
2022/09/25 17:44:49;;;;;;;3.58;3.25;;;19.90;53.90;;;;;;4677715;30;20192;-82
2022/09/25 17:47:30;;;;;;;3.75;3.08;;;19.90;54.00;;;;;;4673442;30;20653;-83
2022/09/25 17:49:56;;;;;;;3.30;3.00;;;20.00;54.10;;;;;;4693746;30;20241;-83
2022/09/25 17:52:41;;;;;;;3.63;2.97;;;19.90;54.10;;;;;;4695134;30;20226;-83
2022/09/25 17:55:23;;;;;;;3.33;3.03;;;19.90;54.20;;;;;;4698344;30;20194;-83
2022/09/25 17:58:07;;;;;;;4.88;3.35;;;19.90;54.20;;;;;;4654331;30;20266;-83
2022/09/25 18:00:47;;;;;;;3.38;3.08;;;19.90;54.30;;;;;;4716991;30;20233;-83
2022/09/25 18:04:09;;;;;;;3.25;2.92;;;19.90;54.30;;;;;;4738265;30;20745;-85
2022/09/25 18:07:43;;;;;;;;;;;;;;;;;;;;;
2022/09/25 18:10:57;;;;;;;3.45;3.15;;;19.90;54.30;;;;;;4809370;30;20221;-86
2022/09/25 18:14:05;;;;;;;3.30;3.00;;;19.90;54.40;;;;;;4795799;29;20188;-85
2022/09/25 18:17:27;;;;;;;3.30;3.00;;;19.80;54.40;;;;;;4755731;30;20195;-85
2022/09/25 18:24:46;;;;;;;;;;;;;;;;;;;;;
